sensor_id;sensor_type;location;lat;lon;timestamp;pressure;altitude;pressure_sealevel;temperature
68342;BMP280;55668;52.310;21.066;2022-08-27T00:02:00;100530.0;;;20.6
68342;BMP280;55668;52.310;21.066;2022-08-27T00:18:16;100520.0;;;20.3
68342;BMP280;55668;52.310;21.066;2022-08-27T00:33:13;100500.0;;;20.1
68342;BMP280;55668;52.310;21.066;2022-08-27T00:50:49;100500.0;;;19.8
68342;BMP280;55668;52.310;21.066;2022-08-27T01:03:57;100510.0;;;19.5
68342;BMP280;55668;52.310;21.066;2022-08-27T01:21:06;100500.0;;;19.2
68342;BMP280;55668;52.310;21.066;2022-08-27T01:49:49;100490.0;;;18.7
68342;BMP280;55668;52.310;21.066;2022-08-27T02:36:16;100490.0;;;18.5
68342;BMP280;55668;52.310;21.066;2022-08-27T02:55:18;100490.0;;;18.1
68342;BMP280;55668;52.310;21.066;2022-08-27T03:10:30;100490.0;;;17.8
68342;BMP280;55668;52.310;21.066;2022-08-27T03:39:19;100480.0;;;17.6
68342;BMP280;55668;52.310;21.066;2022-08-27T04:12:21;100480.0;;;17.4
68342;BMP280;55668;52.310;21.066;2022-08-27T04:29:56;100470.0;;;17.6
68342;BMP280;55668;52.310;21.066;2022-08-27T04:39:03;100480.0;;;17.7
68342;BMP280;55668;52.310;21.066;2022-08-27T04:56:50;100480.0;;;17.9
68342;BMP280;55668;52.310;21.066;2022-08-27T08:54:34;100450.0;;;30.6
68342;BMP280;55668;52.310;21.066;2022-08-27T09:07:47;100440.0;;;29.3
68342;BMP280;55668;52.310;21.066;2022-08-27T09:38:09;100430.0;;;29.2
68342;BMP280;55668;52.310;21.066;2022-08-27T09:54:08;100430.0;;;29.4
68342;BMP280;55668;52.310;21.066;2022-08-27T10:24:17;100410.0;;;29.8
68342;BMP280;55668;52.310;21.066;2022-08-27T10:41:12;100400.0;;;30.1
68342;BMP280;55668;52.310;21.066;2022-08-27T10:57:36;100400.0;;;30.4
68342;BMP280;55668;52.310;21.066;2022-08-27T11:10:41;100390.0;;;30.7
68342;BMP280;55668;52.310;21.066;2022-08-27T11:26:18;100390.0;;;30.9
68342;BMP280;55668;52.310;21.066;2022-08-27T11:43:32;100380.0;;;31.1
68342;BMP280;55668;52.310;21.066;2022-08-27T11:56:35;100380.0;;;31.2
68342;BMP280;55668;52.310;21.066;2022-08-27T12:13:01;100370.0;;;31.3
68342;BMP280;55668;52.310;21.066;2022-08-27T12:46:30;100360.0;;;31.5
68342;BMP280;55668;52.310;21.066;2022-08-27T12:58:38;100350.0;;;31.9
68342;BMP280;55668;52.310;21.066;2022-08-27T13:13:26;100350.0;;;31.5
68342;BMP280;55668;52.310;21.066;2022-08-27T13:28:25;100350.0;;;31.4
68342;BMP280;55668;52.310;21.066;2022-08-27T13:43:45;100350.0;;;31.1
68342;BMP280;55668;52.310;21.066;2022-08-27T13:59:12;100340.0;;;30.9
68342;BMP280;55668;52.310;21.066;2022-08-27T14:14:49;100340.0;;;30.3
68342;BMP280;55668;52.310;21.066;2022-08-27T14:30:04;100340.0;;;29.9
68342;BMP280;55668;52.310;21.066;2022-08-27T14:46:13;100330.0;;;29.6
68342;BMP280;55668;52.310;21.066;2022-08-27T15:00:54;100330.0;;;29.4
68342;BMP280;55668;52.310;21.066;2022-08-27T15:17:00;100320.0;;;29.5
68342;BMP280;55668;52.310;21.066;2022-08-27T15:33:26;100320.0;;;29.6
68342;BMP280;55668;52.310;21.066;2022-08-27T15:47:12;100320.0;;;29.4
68342;BMP280;55668;52.310;21.066;2022-08-27T16:04:07;100300.0;;;29.2
68342;BMP280;55668;52.310;21.066;2022-08-27T16:18:29;100300.0;;;28.9
68342;BMP280;55668;52.310;21.066;2022-08-27T16:33:16;100310.0;;;28.8
68342;BMP280;55668;52.310;21.066;2022-08-27T16:48:10;100310.0;;;28.5
68342;BMP280;55668;52.310;21.066;2022-08-27T17:04:42;100310.0;;;28.1
68342;BMP280;55668;52.310;21.066;2022-08-27T17:19:15;100320.0;;;27.7
68342;BMP280;55668;52.310;21.066;2022-08-27T17:35:22;100340.0;;;27.3
68342;BMP280;55668;52.310;21.066;2022-08-27T17:50:14;100340.0;;;26.8
68342;BMP280;55668;52.310;21.066;2022-08-27T18:07:09;100360.0;;;26.4
68342;BMP280;55668;52.310;21.066;2022-08-27T18:23:30;100370.0;;;26.0
68342;BMP280;55668;52.310;21.066;2022-08-27T18:37:44;100380.0;;;25.6
68342;BMP280;55668;52.310;21.066;2022-08-27T18:51:40;100400.0;;;25.0
68342;BMP280;55668;52.310;21.066;2022-08-27T19:09:25;100410.0;;;24.7
68342;BMP280;55668;52.310;21.066;2022-08-27T19:22:58;100430.0;;;24.3
68342;BMP280;55668;52.310;21.066;2022-08-27T19:37:59;100420.0;;;24.1
68342;BMP280;55668;52.310;21.066;2022-08-27T19:56:00;100440.0;;;23.7
68342;BMP280;55668;52.310;21.066;2022-08-27T20:08:56;100440.0;;;23.3
68342;BMP280;55668;52.310;21.066;2022-08-27T20:23:57;100450.0;;;23.0
68342;BMP280;55668;52.310;21.066;2022-08-27T20:38:59;100440.0;;;22.7
68342;BMP280;55668;52.310;21.066;2022-08-27T20:56:14;100440.0;;;22.2
68342;BMP280;55668;52.310;21.066;2022-08-27T21:09:52;100430.0;;;21.8
68342;BMP280;55668;52.310;21.066;2022-08-27T21:25:24;100440.0;;;21.5
68342;BMP280;55668;52.310;21.066;2022-08-27T21:40:18;100420.0;;;21.1
68342;BMP280;55668;52.310;21.066;2022-08-27T21:56:47;100420.0;;;20.9
68342;BMP280;55668;52.310;21.066;2022-08-27T22:11:54;100420.0;;;20.8
68342;BMP280;55668;52.310;21.066;2022-08-27T22:42:23;100410.0;;;20.4
68342;BMP280;55668;52.310;21.066;2022-08-27T22:57:20;100410.0;;;20.1
68342;BMP280;55668;52.310;21.066;2022-08-27T23:12:23;100410.0;;;19.7
68342;BMP280;55668;52.310;21.066;2022-08-27T23:29:27;100400.0;;;19.3
68342;BMP280;55668;52.310;21.066;2022-08-27T23:43:54;100400.0;;;19.0
68342;BMP280;55668;52.310;21.066;2022-08-27T23:59:03;100400.0;;;18.8
